Latest Weather Observations for Ngayawili (Elcho Island)

IDD60801

Issued at 10:01 am CST Thursday 18 December 2014 (issued every 30 minutes, with the page automatically refreshed every 10 minutes)

About weather observations | Map of weather stations | Latest weather observations for NT | Other Formats
Station Details ID: 014517 Name: NGAYAWILI Lat: -12.00 Lon: 135.57 Height: 8.1 m
Data from the previous 72 hours. | See also: Recent months at Ngayawili (Elcho Island)
Date/Time
CST
Temp
°C
App
Temp
°C
Dew
Point
Rel
Hum
%
Delta-T
°C
Wind Press
QNH
hPa
Press
MSL
hPa
Rain
since 9 am
mm
Dir
 
Spd
km/h
Gust
km/h
Spd
kts
Gust
kts
18/10:00am 32.2 - - - - NNW 15 17 8 9 - - 0.0
18/09:30am 31.7 - - - - N 13 17 7 9 - - 0.0
18/09:00am 31.8 - - - - NNW 15 20 8 11 - - 0.0
18/08:30am 31.5 - - - - NNW 15 17 8 9 - - 0.0
18/08:00am 31.0 - - - - NNW 9 13 5 7 - - 0.0
18/07:30am 30.5 - - - - NNW 13 19 7 10 - - 0.0
18/07:00am 30.0 - - - - NNW 13 15 7 8 - - 0.0
18/06:30am 29.9 - - - - NW 13 15 7 8 - - 0.0
18/06:00am 29.7 - - - - NW 11 15 6 8 - - 0.0
18/05:30am 29.6 - - - - NW 13 17 7 9 - - 0.0
18/05:00am 29.8 - - - - NW 15 17 8 9 - - 0.0
18/04:30am 29.9 - - - - NW 15 19 8 10 - - 0.0
18/04:00am 29.7 - - - - NNW 15 20 8 11 - - 0.0
18/03:30am 29.9 - - - - NNW 19 20 10 11 - - 0.0
18/03:00am 29.6 - - - - NW 20 24 11 13 - - 0.0
18/02:30am 29.8 - - - - NW 19 22 10 12 - - 0.0
18/02:00am 29.8 - - - - NW 15 19 8 10 - - 0.0
18/01:30am 29.9 - - - - NW 15 19 8 10 - - 0.0
18/01:00am 30.0 - - - - NW 19 24 10 13 - - 0.0
18/12:30am 30.1 - - - - NW 19 20 10 11 - - 0.0
18/12:00am 30.1 - - - - NW 19 24 10 13 - - 0.0
 
Date/Time
CST
Temp
°C
App
Temp
°C
Dew
Point
Rel
Hum
%
Delta-T
°C
Wind Press
QNH
hPa
Press
MSL
hPa
Rain
since 9 am
mm
Dir
 
Spd
km/h
Gust
km/h
Spd
kts
Gust
kts
17/11:30pm 30.0 - - - - NW 17 22 9 12 - - 0.0
17/11:00pm 30.1 - - - - NNW 20 24 11 13 - - 0.0
17/10:30pm 30.1 - - - - NNW 20 24 11 13 - - 0.0
17/10:00pm 30.2 - - - - NNW 20 24 11 13 - - 0.0
17/09:30pm 30.3 - - - - NNW 22 28 12 15 - - 0.0
17/09:00pm 30.4 - - - - NNW 22 28 12 15 - - 0.0
17/08:30pm 30.4 - - - - N 24 30 13 16 - - 0.0
17/08:00pm 30.5 - - - - NNW 24 28 13 15 - - 0.0
17/07:30pm 30.4 - - - - N 26 30 14 16 - - 0.0
17/07:00pm 30.4 - - - - N 24 30 13 16 - - 0.0
17/06:30pm 30.7 - - - - N 22 26 12 14 - - 0.0
17/06:00pm 31.3 - - - - NNW 22 26 12 14 - - 0.0
17/05:30pm 31.7 - - - - NNW 20 26 11 14 - - 0.0
17/05:00pm 32.0 - - - - NNW 22 26 12 14 - - 0.0
17/04:30pm 32.8 - - - - NNW 22 24 12 13 - - 0.0
17/04:00pm 32.8 - - - - NNW 19 20 10 11 - - 0.0
17/03:30pm 33.2 - - - - NNW 19 22 10 12 - - 0.0
17/03:00pm 33.6 - - - - NNW 19 22 10 12 - - 0.0
17/02:30pm 33.1 - - - - NNW 20 24 11 13 - - 0.0
17/02:00pm 33.3 - - - - NNW 20 24 11 13 - - 0.0
17/01:30pm 33.4 - - - - NW 20 24 11 13 - - 0.0
17/01:00pm 33.4 - - - - NNW 22 26 12 14 - - 0.0
17/12:30pm 33.4 - - - - NW 19 22 10 12 - - 0.0
17/12:00pm 33.1 - - - - NNW 19 20 10 11 - - 0.0
17/11:30am 33.2 - - - - NW 17 20 9 11 - - 0.0
17/11:00am 33.0 - - - - NW 20 24 11 13 - - 0.0
17/10:30am 32.8 - - - - NNW 19 22 10 12 - - 0.0
17/10:00am 32.5 - - - - NW 20 24 11 13 - - 0.0
17/09:30am 32.4 - - - - NNW 19 22 10 12 - - 0.0
17/09:00am 31.9 - - - - NW 19 22 10 12 - - 0.0
17/08:30am 31.5 - - - - NW 20 24 11 13 - - 0.0
17/08:00am 31.1 - - - - NW 20 26 11 14 - - 0.0
17/07:30am 30.6 - - - - NW 22 26 12 14 - - 0.0
17/07:00am 30.3 - - - - NW 24 28 13 15 - - 0.0
17/06:30am 29.9 - - - - NW 22 28 12 15 - - 0.0
17/06:00am 29.7 - - - - NW 24 28 13 15 - - 0.0
17/05:30am 29.8 - - - - WNW 20 26 11 14 - - 0.0
17/05:00am 29.8 - - - - WNW 22 26 12 14 - - 0.0
17/04:30am 29.8 - - - - NW 24 26 13 14 - - 0.0
17/04:00am 29.9 - - - - NW 24 28 13 15 - - 0.0
17/03:30am 29.9 - - - - NW 24 28 13 15 - - 0.0
17/03:00am 29.7 - - - - NW 22 26 12 14 - - 0.0
17/02:30am 29.7 - - - - NW 24 28 13 15 - - 0.0
17/02:00am 29.9 - - - - NW 24 28 13 15 - - 0.0
17/01:30am 29.9 - - - - NW 24 28 13 15 - - 0.0
17/01:00am 29.9 - - - - NW 22 26 12 14 - - 0.0
17/12:30am 30.1 - - - - NNW 20 26 11 14 - - 0.0
17/12:00am 30.1 - - - - NNW 20 24 11 13 - - 0.0
 
Date/Time
CST
Temp
°C
App
Temp
°C
Dew
Point
Rel
Hum
%
Delta-T
°C
Wind Press
QNH
hPa
Press
MSL
hPa
Rain
since 9 am
mm
Dir
 
Spd
km/h
Gust
km/h
Spd
kts
Gust
kts
16/11:30pm 30.1 - - - - NNW 22 26 12 14 - - 0.0
16/11:00pm 29.9 - - - - NNW 24 28 13 15 - - 0.0
16/10:30pm 30.0 - - - - NNW 20 24 11 13 - - 0.0
16/10:00pm 30.0 - - - - N 20 24 11 13 - - 0.0
16/09:30pm 30.0 - - - - N 20 22 11 12 - - 0.0
16/09:00pm 30.2 - - - - NNW 17 20 9 11 - - 0.0
16/08:30pm 30.1 - - - - N 20 24 11 13 - - 0.0
16/08:00pm 30.2 - - - - N 20 24 11 13 - - 0.0
16/07:30pm 30.1 - - - - N 19 22 10 12 - - 0.0
16/07:00pm 30.2 - - - - N 22 24 12 13 - - 0.0
16/06:30pm 30.3 - - - - N 24 26 13 14 - - 0.0
16/06:00pm 30.5 - - - - N 24 28 13 15 - - 0.0
16/05:30pm 30.6 - - - - NNW 24 30 13 16 - - 0.0
16/05:00pm 30.8 - - - - NW 17 22 9 12 - - 0.0
16/04:30pm 31.3 - - - - NW 22 26 12 14 - - 0.0
16/04:00pm 30.9 - - - - NNW 20 24 11 13 - - 0.0
16/03:30pm 31.9 - - - - NW 22 28 12 15 - - 0.0
16/03:00pm 32.6 - - - - NW 24 30 13 16 - - 0.0
16/02:30pm 33.2 - - - - NW 24 28 13 15 - - 0.0
16/02:00pm 32.9 - - - - WNW 24 28 13 15 - - 0.0
16/01:30pm 32.5 - - - - WNW 24 28 13 15 - - 0.0
16/01:00pm 33.0 - - - - NW 22 28 12 15 - - 0.0
16/12:30pm 32.9 - - - - NW 22 26 12 14 - - 0.0
16/12:00pm 33.2 - - - - NW 20 26 11 14 - - 0.0
16/11:30am 32.9 - - - - WNW 19 24 10 13 - - 0.0
16/11:00am 32.6 - - - - WNW 22 28 12 15 - - 0.0
16/10:30am 32.7 - - - - WNW 24 28 13 15 - - 0.0
16/10:00am 32.3 - - - - WNW 24 28 13 15 - - 0.0
16/09:30am 31.5 - - - - WNW 24 30 13 16 - - 0.0
16/09:00am 31.5 - - - - NW 26 30 14 16 - - 0.0
16/08:30am 31.2 - - - - NW 24 32 13 17 - - 0.0
16/08:00am 30.7 - - - - NW 28 32 15 17 - - 0.0
16/07:30am 30.5 - - - - NW 24 28 13 15 - - 0.0
16/07:00am 30.0 - - - - WNW 26 28 14 15 - - 0.0
16/06:30am 29.8 - - - - NW 26 30 14 16 - - 0.0
16/06:00am 29.8 - - - - NW 28 35 15 19 - - 0.0
16/05:30am 29.8 - - - - NW 30 35 16 19 - - 0.0
16/05:00am 29.8 - - - - NW 26 30 14 16 - - 0.0
16/04:30am 29.9 - - - - NW 28 32 15 17 - - 0.0
16/04:00am 29.5 - - - - NW 28 32 15 17 - - 0.0
16/03:30am 29.6 - - - - NW 28 33 15 18 - - 0.0
16/03:00am 29.8 - - - - NW 28 32 15 17 - - 0.0
16/02:30am 29.6 - - - - NW 26 32 14 17 - - 0.0
16/02:00am 29.7 - - - - NNW 30 33 16 18 - - 0.0
16/01:30am 29.9 - - - - NW 28 32 15 17 - - 0.0
16/01:00am 29.8 - - - - NW 24 28 13 15 - - 0.0
16/12:30am 29.7 - - - - NW 24 28 13 15 - - 0.0
16/12:00am 29.7 - - - - NNW 22 28 12 15 - - 0.0
 
Date/Time
CST
Temp
°C
App
Temp
°C
Dew
Point
Rel
Hum
%
Delta-T
°C
Wind Press
QNH
hPa
Press
MSL
hPa
Rain
since 9 am
mm
Dir
 
Spd
km/h
Gust
km/h
Spd
kts
Gust
kts
15/11:30pm 29.9 - - - - NNW 24 30 13 16 - - 0.0
15/11:00pm 29.9 - - - - NW 24 28 13 15 - - 0.0
15/10:30pm 30.1 - - - - NW 26 30 14 16 - - 0.0
15/10:00pm 29.9 - - - - NNW 26 32 14 17 - - 0.0
15/09:30pm 29.9 - - - - NNW 26 32 14 17 - - 0.0
15/09:00pm 30.0 - - - - NNW 26 30 14 16 - - 0.0
15/08:30pm 30.0 - - - - NNW 26 30 14 16 - - 0.0
15/08:00pm 30.1 - - - - NNW 24 28 13 15 - - 0.0
15/07:30pm 30.1 - - - - NNW 22 26 12 14 - - 0.0
15/07:00pm 30.2 - - - - NNW 24 32 13 17 - - 0.0
15/06:30pm 30.1 - - - - NNW 28 32 15 17 - - 0.0
15/06:00pm 30.3 - - - - NNW 26 30 14 16 - - 0.0
15/05:30pm 30.5 - - - - NNW 24 28 13 15 - - 0.0
15/05:00pm 30.5 - - - - NNW 28 33 15 18 - - 0.0
15/04:30pm 30.7 - - - - NW 22 26 12 14 - - 0.0
15/04:00pm 30.6 - - - - NNW 26 30 14 16 - - 0.0
15/03:30pm 30.7 - - - - NNW 28 35 15 19 - - 0.0
15/03:00pm 30.9 - - - - NNW 33 39 18 21 - - 0.0
15/02:30pm 31.5 - - - - NNW 30 35 16 19 - - 0.0
15/02:00pm 33.0 - - - - NW 28 33 15 18 - - 0.0
15/01:30pm 33.1 - - - - NW 24 28 13 15 - - 0.0
15/01:00pm 33.0 - - - - WNW 19 24 10 13 - - 0.0
15/12:30pm 32.9 - - - - WNW 19 24 10 13 - - 0.0
15/12:00pm 32.8 - - - - W 20 26 11 14 - - 0.0
15/11:30am 33.1 - - - - W 20 26 11 14 - - 0.0
15/11:00am 32.4 - - - - W 19 24 10 13 - - 0.0
15/10:30am 32.0 - - - - W 22 26 12 14 - - 0.0

Other Formats:

Comma delimited format used in spreadsheet applications
http://www.bom.gov.au/fwo/IDD60801/IDD60801.95146.axf

JavaScript Object Notation format (JSON) in row-major order
http://www.bom.gov.au/fwo/IDD60801/IDD60801.95146.json